This is the latest recevied weather packets stored in our database for station/object SP2TMT-10. If no packets are shown the sender has not sent any weather packets the latest 10 day(s).
| Time | Temp. | Humidity | Pressure | Rain* | Wind** | Luminosity | Snow |
|---|---|---|---|---|---|---|---|
| 1777322345 | 26.11° C | 62% | 1023.6 hPa | - | - | - | - |
| 1777321445 | 23.89° C | 44% | 1023.5 hPa | - | - | - | - |
| 1777320545 | 23.89° C | 54% | 1023.4 hPa | - | - | - | - |
| 1777319645 | 23.33° C | 51% | 1023.4 hPa | - | - | - | - |
| 1777318744 | 21.11° C | 38% | 1023.3 hPa | - | - | - | - |
| 1777317844 | 23.33° C | 40% | 1023.2 hPa | - | - | - | - |
| 1777316944 | 20° C | 36% | 1023 hPa | - | - | - | - |
| 1777316044 | 20° C | 36% | 1022.8 hPa | - | - | - | - |
| 1777315144 | 20° C | 33% | 1022.7 hPa | - | - | - | - |
| 1777314244 | 20° C | 33% | 1022.4 hPa | - | - | - | - |
| 1777313338 | 20° C | 33% | 1022.2 hPa | - | - | - | - |
| 1777312438 | 20° C | 33% | 1021.9 hPa | - | - | - | - |
| 1777311538 | 20° C | 33% | 1021.7 hPa | - | - | - | - |
| 1777310638 | 20° C | 33% | 1021.4 hPa | - | - | - | - |
| 1777309738 | 20.56° C | 34% | 1021.4 hPa | - | - | - | - |
| 1777308838 | 20° C | 32% | 1021.2 hPa | - | - | - | - |
| 1777307938 | 20° C | 32% | 1021.1 hPa | - | - | - | - |
| 1777307038 | 20° C | 33% | 1020.9 hPa | - | - | - | - |
| 1777306138 | 20° C | 33% | 1020.8 hPa | - | - | - | - |
| 1777305238 | 20° C | 33% | 1020.7 hPa | - | - | - | - |
| 1777304338 | 20° C | 33% | 1020.6 hPa | - | - | - | - |
| 1777303438 | 20° C | 33% | 1020.7 hPa | - | - | - | - |
| 1777302537 | 20° C | 32% | 1020.7 hPa | - | - | - | - |
| 1777301637 | 20° C | 32% | 1020.7 hPa | - | - | - | - |
| 1777300737 | 19.44° C | 32% | 1020.9 hPa | - | - | - | - |
* Rain since midnight (hover to see other rain measurements)
** Current wind speed in m/s (hover to see current wind gust speed)